sensor_id;sensor_type;location;lat;lon;timestamp;P1;durP1;ratioP1;P2;durP2;ratioP2
26780;SDS011;14366;49.184;8.054;2024-03-22T00:09:59;4.63;;;3.90;;
26780;SDS011;14366;49.184;8.054;2024-03-22T00:15:35;4.77;;;3.73;;
26780;SDS011;14366;49.184;8.054;2024-03-22T00:21:10;4.10;;;3.27;;
26780;SDS011;14366;49.184;8.054;2024-03-22T00:26:30;3.20;;;2.90;;
26780;SDS011;14366;49.184;8.054;2024-03-22T00:32:07;3.53;;;2.93;;
26780;SDS011;14366;49.184;8.054;2024-03-22T00:37:44;2.80;;;2.60;;
26780;SDS011;14366;49.184;8.054;2024-03-22T00:43:19;3.87;;;2.73;;
26780;SDS011;14366;49.184;8.054;2024-03-22T00:48:54;5.77;;;3.07;;
26780;SDS011;14366;49.184;8.054;2024-03-22T00:54:29;3.57;;;2.90;;
26780;SDS011;14366;49.184;8.054;2024-03-22T01:00:04;3.90;;;3.00;;
26780;SDS011;14366;49.184;8.054;2024-03-22T01:05:23;3.67;;;2.60;;
26780;SDS011;14366;49.184;8.054;2024-03-22T01:10:59;4.63;;;3.00;;
26780;SDS011;14366;49.184;8.054;2024-03-22T01:16:19;5.17;;;2.90;;
26780;SDS011;14366;49.184;8.054;2024-03-22T01:27:00;3.90;;;3.10;;
26780;SDS011;14366;49.184;8.054;2024-03-22T01:32:36;3.87;;;2.77;;
26780;SDS011;14366;49.184;8.054;2024-03-22T01:38:10;4.35;;;3.25;;
26780;SDS011;14366;49.184;8.054;2024-03-22T01:43:46;3.93;;;3.23;;
26780;SDS011;14366;49.184;8.054;2024-03-22T01:49:22;5.03;;;3.50;;
26780;SDS011;14366;49.184;8.054;2024-03-22T01:54:57;4.57;;;3.30;;
26780;SDS011;14366;49.184;8.054;2024-03-22T02:05:38;3.80;;;3.40;;
26780;SDS011;14366;49.184;8.054;2024-03-22T02:16:18;5.30;;;3.90;;
26780;SDS011;14366;49.184;8.054;2024-03-22T02:21:54;5.27;;;3.87;;
26780;SDS011;14366;49.184;8.054;2024-03-22T02:32:35;4.43;;;3.40;;
26780;SDS011;14366;49.184;8.054;2024-03-22T02:38:08;4.20;;;3.47;;
26780;SDS011;14366;49.184;8.054;2024-03-22T02:43:28;4.20;;;3.23;;
26780;SDS011;14366;49.184;8.054;2024-03-22T02:48:49;3.67;;;3.10;;
26780;SDS011;14366;49.184;8.054;2024-03-22T02:54:25;5.30;;;3.00;;
26780;SDS011;14366;49.184;8.054;2024-03-22T03:06:02;3.15;;;2.85;;
26780;SDS011;14366;49.184;8.054;2024-03-22T03:16:39;4.27;;;2.90;;
26780;SDS011;14366;49.184;8.054;2024-03-22T03:22:14;4.30;;;2.95;;
26780;SDS011;14366;49.184;8.054;2024-03-22T03:27:48;4.40;;;2.80;;
26780;SDS011;14366;49.184;8.054;2024-03-22T03:33:24;3.60;;;2.80;;
26780;SDS011;14366;49.184;8.054;2024-03-22T03:38:46;5.20;;;3.03;;
26780;SDS011;14366;49.184;8.054;2024-03-22T03:44:20;3.10;;;2.70;;
26780;SDS011;14366;49.184;8.054;2024-03-22T03:49:55;4.45;;;2.80;;
26780;SDS011;14366;49.184;8.054;2024-03-22T03:55:17;4.03;;;2.70;;
26780;SDS011;14366;49.184;8.054;2024-03-22T04:00:51;3.65;;;2.97;;
26780;SDS011;14366;49.184;8.054;2024-03-22T04:06:11;4.63;;;2.80;;
26780;SDS011;14366;49.184;8.054;2024-03-22T04:11:34;3.20;;;2.90;;
26780;SDS011;14366;49.184;8.054;2024-03-22T04:17:09;4.35;;;2.95;;
26780;SDS011;14366;49.184;8.054;2024-03-22T04:22:44;4.87;;;3.00;;
26780;SDS011;14366;49.184;8.054;2024-03-22T04:28:22;4.40;;;3.23;;
26780;SDS011;14366;49.184;8.054;2024-03-22T04:33:57;5.27;;;3.43;;
26780;SDS011;14366;49.184;8.054;2024-03-22T04:39:18;3.60;;;2.93;;
26780;SDS011;14366;49.184;8.054;2024-03-22T04:44:56;4.90;;;3.10;;
26780;SDS011;14366;49.184;8.054;2024-03-22T04:55:35;4.40;;;3.40;;
26780;SDS011;14366;49.184;8.054;2024-03-22T05:01:12;4.45;;;3.20;;
26780;SDS011;14366;49.184;8.054;2024-03-22T05:06:46;4.65;;;3.10;;
26780;SDS011;14366;49.184;8.054;2024-03-22T05:12:06;4.60;;;3.30;;
26780;SDS011;14366;49.184;8.054;2024-03-22T05:17:43;5.15;;;3.20;;
26780;SDS011;14366;49.184;8.054;2024-03-22T05:23:18;4.70;;;2.90;;
26780;SDS011;14366;49.184;8.054;2024-03-22T05:28:53;4.50;;;2.90;;
26780;SDS011;14366;49.184;8.054;2024-03-22T05:39:34;5.47;;;3.53;;
26780;SDS011;14366;49.184;8.054;2024-03-22T05:50:11;5.50;;;3.67;;
26780;SDS011;14366;49.184;8.054;2024-03-22T05:55:47;3.80;;;3.10;;
26780;SDS011;14366;49.184;8.054;2024-03-22T06:01:23;3.80;;;3.20;;
26780;SDS011;14366;49.184;8.054;2024-03-22T06:12:05;4.17;;;2.80;;
26780;SDS011;14366;49.184;8.054;2024-03-22T06:17:55;4.97;;;2.80;;
26780;SDS011;14366;49.184;8.054;2024-03-22T06:23:15;4.73;;;3.10;;
26780;SDS011;14366;49.184;8.054;2024-03-22T06:28:51;4.60;;;3.03;;
26780;SDS011;14366;49.184;8.054;2024-03-22T06:34:27;3.40;;;2.90;;
26780;SDS011;14366;49.184;8.054;2024-03-22T06:39:47;5.00;;;3.00;;
26780;SDS011;14366;49.184;8.054;2024-03-22T06:45:24;5.43;;;3.30;;
26780;SDS011;14366;49.184;8.054;2024-03-22T06:50:59;8.80;;;3.20;;
26780;SDS011;14366;49.184;8.054;2024-03-22T06:56:35;5.20;;;3.70;;
26780;SDS011;14366;49.184;8.054;2024-03-22T07:01:56;11.73;;;6.77;;
26780;SDS011;14366;49.184;8.054;2024-03-22T07:07:32;5.63;;;3.57;;
26780;SDS011;14366;49.184;8.054;2024-03-22T07:13:08;9.30;;;3.50;;
26780;SDS011;14366;49.184;8.054;2024-03-22T07:18:29;5.00;;;3.50;;
26780;SDS011;14366;49.184;8.054;2024-03-22T07:24:04;5.37;;;3.17;;
26780;SDS011;14366;49.184;8.054;2024-03-22T07:29:25;7.10;;;4.73;;
26780;SDS011;14366;49.184;8.054;2024-03-22T07:35:01;4.70;;;3.30;;
26780;SDS011;14366;49.184;8.054;2024-03-22T07:40:44;11.37;;;8.60;;
26780;SDS011;14366;49.184;8.054;2024-03-22T07:46:04;6.25;;;4.50;;
26780;SDS011;14366;49.184;8.054;2024-03-22T07:51:25;7.43;;;5.30;;
26780;SDS011;14366;49.184;8.054;2024-03-22T07:57:00;6.50;;;4.45;;
26780;SDS011;14366;49.184;8.054;2024-03-22T08:02:20;6.80;;;3.53;;
26780;SDS011;14366;49.184;8.054;2024-03-22T08:12:43;5.65;;;3.45;;
26780;SDS011;14366;49.184;8.054;2024-03-22T08:23:20;4.43;;;3.33;;
26780;SDS011;14366;49.184;8.054;2024-03-22T08:28:41;4.40;;;3.30;;
26780;SDS011;14366;49.184;8.054;2024-03-22T08:34:15;5.15;;;3.50;;
26780;SDS011;14366;49.184;8.054;2024-03-22T08:44:56;6.80;;;3.90;;
26780;SDS011;14366;49.184;8.054;2024-03-22T08:55:36;5.23;;;3.60;;
26780;SDS011;14366;49.184;8.054;2024-03-22T09:01:13;4.10;;;3.37;;
26780;SDS011;14366;49.184;8.054;2024-03-22T09:06:46;6.75;;;3.80;;
26780;SDS011;14366;49.184;8.054;2024-03-22T09:12:20;4.77;;;3.73;;
26780;SDS011;14366;49.184;8.054;2024-03-22T09:17:57;4.07;;;3.10;;
26780;SDS011;14366;49.184;8.054;2024-03-22T09:23:32;5.23;;;3.70;;
26780;SDS011;14366;49.184;8.054;2024-03-22T09:29:04;5.90;;;4.00;;
26780;SDS011;14366;49.184;8.054;2024-03-22T09:34:26;7.07;;;4.23;;
26780;SDS011;14366;49.184;8.054;2024-03-22T09:45:06;5.57;;;3.77;;
26780;SDS011;14366;49.184;8.054;2024-03-22T09:50:44;6.75;;;4.90;;
26780;SDS011;14366;49.184;8.054;2024-03-22T09:56:18;5.60;;;4.53;;
26780;SDS011;14366;49.184;8.054;2024-03-22T10:01:53;6.37;;;4.90;;
26780;SDS011;14366;49.184;8.054;2024-03-22T10:07:31;15.23;;;10.97;;
26780;SDS011;14366;49.184;8.054;2024-03-22T10:13:05;7.83;;;4.83;;
26780;SDS011;14366;49.184;8.054;2024-03-22T10:23:32;5.05;;;4.20;;
26780;SDS011;14366;49.184;8.054;2024-03-22T10:34:07;6.07;;;3.83;;
26780;SDS011;14366;49.184;8.054;2024-03-22T10:39:44;12.90;;;6.55;;
26780;SDS011;14366;49.184;8.054;2024-03-22T10:45:19;5.17;;;3.90;;
26780;SDS011;14366;49.184;8.054;2024-03-22T10:50:41;4.83;;;3.10;;
26780;SDS011;14366;49.184;8.054;2024-03-22T10:56:17;4.85;;;3.05;;
26780;SDS011;14366;49.184;8.054;2024-03-22T11:01:51;4.90;;;2.95;;
26780;SDS011;14366;49.184;8.054;2024-03-22T11:07:28;4.27;;;2.77;;
26780;SDS011;14366;49.184;8.054;2024-03-22T11:13:04;5.10;;;3.00;;
26780;SDS011;14366;49.184;8.054;2024-03-22T11:18:37;5.80;;;3.73;;
26780;SDS011;14366;49.184;8.054;2024-03-22T11:24:13;6.37;;;3.93;;
26780;SDS011;14366;49.184;8.054;2024-03-22T11:29:35;7.37;;;3.77;;
26780;SDS011;14366;49.184;8.054;2024-03-22T11:35:11;5.10;;;3.85;;
26780;SDS011;14366;49.184;8.054;2024-03-22T11:40:45;5.30;;;3.60;;
26780;SDS011;14366;49.184;8.054;2024-03-22T11:46:22;4.77;;;3.80;;
26780;SDS011;14366;49.184;8.054;2024-03-22T11:51:57;6.23;;;4.07;;
26780;SDS011;14366;49.184;8.054;2024-03-22T12:02:38;5.75;;;4.00;;
26780;SDS011;14366;49.184;8.054;2024-03-22T12:13:15;6.20;;;3.90;;
26780;SDS011;14366;49.184;8.054;2024-03-22T12:23:38;4.60;;;3.60;;
26780;SDS011;14366;49.184;8.054;2024-03-22T12:34:15;7.05;;;4.10;;
26780;SDS011;14366;49.184;8.054;2024-03-22T12:39:51;8.40;;;4.55;;
26780;SDS011;14366;49.184;8.054;2024-03-22T12:45:27;5.77;;;4.13;;
26780;SDS011;14366;49.184;8.054;2024-03-22T12:51:02;4.80;;;3.53;;
26780;SDS011;14366;49.184;8.054;2024-03-22T12:56:38;5.93;;;3.43;;
26780;SDS011;14366;49.184;8.054;2024-03-22T13:07:14;4.80;;;3.43;;
26780;SDS011;14366;49.184;8.054;2024-03-22T13:12:36;5.17;;;3.33;;
26780;SDS011;14366;49.184;8.054;2024-03-22T13:18:11;3.80;;;2.87;;
26780;SDS011;14366;49.184;8.054;2024-03-22T13:23:32;6.83;;;3.47;;
26780;SDS011;14366;49.184;8.054;2024-03-22T13:29:08;5.10;;;2.90;;
26780;SDS011;14366;49.184;8.054;2024-03-22T13:34:43;6.23;;;3.93;;
26780;SDS011;14366;49.184;8.054;2024-03-22T13:40:19;4.80;;;3.10;;
26780;SDS011;14366;49.184;8.054;2024-03-22T13:45:55;5.30;;;3.23;;
26780;SDS011;14366;49.184;8.054;2024-03-22T13:51:30;3.73;;;2.70;;
26780;SDS011;14366;49.184;8.054;2024-03-22T13:57:05;6.53;;;4.30;;
26780;SDS011;14366;49.184;8.054;2024-03-22T14:02:27;6.83;;;4.37;;
26780;SDS011;14366;49.184;8.054;2024-03-22T14:08:02;6.95;;;3.40;;
26780;SDS011;14366;49.184;8.054;2024-03-22T14:13:37;4.97;;;3.60;;
26780;SDS011;14366;49.184;8.054;2024-03-22T14:19:13;5.90;;;3.65;;
26780;SDS011;14366;49.184;8.054;2024-03-22T14:24:48;5.80;;;3.30;;
26780;SDS011;14366;49.184;8.054;2024-03-22T14:30:06;7.13;;;3.50;;
26780;SDS011;14366;49.184;8.054;2024-03-22T14:41:02;8.90;;;4.40;;
26780;SDS011;14366;49.184;8.054;2024-03-22T14:46:37;8.57;;;4.33;;
26780;SDS011;14366;49.184;8.054;2024-03-22T14:51:58;7.90;;;4.60;;
26780;SDS011;14366;49.184;8.054;2024-03-22T14:57:30;5.65;;;4.05;;
26780;SDS011;14366;49.184;8.054;2024-03-22T15:07:53;7.53;;;4.00;;
26780;SDS011;14366;49.184;8.054;2024-03-22T15:13:28;7.13;;;4.00;;
26780;SDS011;14366;49.184;8.054;2024-03-22T15:23:54;5.40;;;3.70;;
26780;SDS011;14366;49.184;8.054;2024-03-22T15:29:29;8.93;;;5.40;;
26780;SDS011;14366;49.184;8.054;2024-03-22T15:34:47;9.77;;;5.17;;
26780;SDS011;14366;49.184;8.054;2024-03-22T15:40:10;8.00;;;4.40;;
26780;SDS011;14366;49.184;8.054;2024-03-22T15:45:42;9.05;;;4.85;;
26780;SDS011;14366;49.184;8.054;2024-03-22T15:51:17;10.07;;;5.18;;
26780;SDS011;14366;49.184;8.054;2024-03-22T15:56:54;10.67;;;5.60;;
26780;SDS011;14366;49.184;8.054;2024-03-22T16:02:28;6.40;;;3.40;;
26780;SDS011;14366;49.184;8.054;2024-03-22T16:07:49;4.43;;;3.30;;
26780;SDS011;14366;49.184;8.054;2024-03-22T16:13:26;5.40;;;3.90;;
26780;SDS011;14366;49.184;8.054;2024-03-22T16:19:00;4.70;;;3.10;;
26780;SDS011;14366;49.184;8.054;2024-03-22T16:24:35;5.75;;;3.40;;
26780;SDS011;14366;49.184;8.054;2024-03-22T16:30:09;4.17;;;3.37;;
26780;SDS011;14366;49.184;8.054;2024-03-22T16:35:44;4.40;;;3.60;;
26780;SDS011;14366;49.184;8.054;2024-03-22T16:41:04;5.83;;;3.73;;
26780;SDS011;14366;49.184;8.054;2024-03-22T16:51:31;5.20;;;3.50;;
26780;SDS011;14366;49.184;8.054;2024-03-22T16:57:03;5.67;;;3.70;;
26780;SDS011;14366;49.184;8.054;2024-03-22T17:02:21;6.20;;;3.50;;
26780;SDS011;14366;49.184;8.054;2024-03-22T17:07:43;9.63;;;3.93;;
26780;SDS011;14366;49.184;8.054;2024-03-22T17:13:17;4.20;;;3.30;;
26780;SDS011;14366;49.184;8.054;2024-03-22T17:18:37;5.90;;;4.20;;
26780;SDS011;14366;49.184;8.054;2024-03-22T17:23:59;7.15;;;4.60;;
26780;SDS011;14366;49.184;8.054;2024-03-22T17:29:33;8.30;;;5.73;;
26780;SDS011;14366;49.184;8.054;2024-03-22T17:34:54;10.00;;;5.90;;
26780;SDS011;14366;49.184;8.054;2024-03-22T17:40:17;11.13;;;6.33;;
26780;SDS011;14366;49.184;8.054;2024-03-22T17:45:55;6.90;;;4.87;;
26780;SDS011;14366;49.184;8.054;2024-03-22T17:51:29;7.70;;;6.23;;
26780;SDS011;14366;49.184;8.054;2024-03-22T17:57:06;10.13;;;6.67;;
26780;SDS011;14366;49.184;8.054;2024-03-22T18:02:40;8.50;;;5.60;;
26780;SDS011;14366;49.184;8.054;2024-03-22T18:08:00;10.35;;;6.30;;
26780;SDS011;14366;49.184;8.054;2024-03-22T18:13:20;11.80;;;7.20;;
26780;SDS011;14366;49.184;8.054;2024-03-22T18:18:56;10.43;;;7.23;;
26780;SDS011;14366;49.184;8.054;2024-03-22T18:24:17;13.90;;;6.45;;
26780;SDS011;14366;49.184;8.054;2024-03-22T18:29:39;11.13;;;7.03;;
26780;SDS011;14366;49.184;8.054;2024-03-22T18:35:12;8.53;;;5.13;;
26780;SDS011;14366;49.184;8.054;2024-03-22T18:40:33;6.25;;;4.70;;
26780;SDS011;14366;49.184;8.054;2024-03-22T18:45:54;5.93;;;5.13;;
26780;SDS011;14366;49.184;8.054;2024-03-22T18:51:29;6.85;;;5.20;;
26780;SDS011;14366;49.184;8.054;2024-03-22T18:56:50;8.83;;;5.30;;
26780;SDS011;14366;49.184;8.054;2024-03-22T19:02:26;5.60;;;4.80;;
26780;SDS011;14366;49.184;8.054;2024-03-22T19:07:59;6.90;;;4.80;;
26780;SDS011;14366;49.184;8.054;2024-03-22T19:13:34;8.10;;;5.10;;
26780;SDS011;14366;49.184;8.054;2024-03-22T19:18:54;8.73;;;5.30;;
26780;SDS011;14366;49.184;8.054;2024-03-22T19:24:29;8.93;;;5.60;;
26780;SDS011;14366;49.184;8.054;2024-03-22T19:29:50;8.40;;;5.20;;
26780;SDS011;14366;49.184;8.054;2024-03-22T19:35:11;6.13;;;5.13;;
26780;SDS011;14366;49.184;8.054;2024-03-22T19:40:46;7.33;;;4.50;;
26780;SDS011;14366;49.184;8.054;2024-03-22T19:46:06;7.00;;;4.90;;
26780;SDS011;14366;49.184;8.054;2024-03-22T19:51:28;8.60;;;4.50;;
26780;SDS011;14366;49.184;8.054;2024-03-22T19:57:03;7.90;;;5.00;;
26780;SDS011;14366;49.184;8.054;2024-03-22T20:02:21;5.30;;;4.40;;
26780;SDS011;14366;49.184;8.054;2024-03-22T20:07:40;5.47;;;4.50;;
26780;SDS011;14366;49.184;8.054;2024-03-22T20:18:16;10.62;;;5.12;;
26780;SDS011;14366;49.184;8.054;2024-03-22T20:23:52;6.50;;;4.80;;
26780;SDS011;14366;49.184;8.054;2024-03-22T20:29:27;7.87;;;4.93;;
26780;SDS011;14366;49.184;8.054;2024-03-22T20:35:02;7.50;;;5.37;;
